Time;durP1;ratioP1;P1;durP2;ratioP2;P2;SDS_P1;SDS_P2;PMS_P1;PMS_P2;Temp;Humidity;BMP_temperature;BMP_pressure;BME280_temperature;BME280_humidity;BME280_pressure;Samples;Min_cycle;Max_cycle;Signal;HPM_P1;HPM_P2
2023/10/16 00:02:11;;;;;;;5.95;1.88;;;;;;;16.57;100.00;98497.94;5025071;28;20076;-93
2023/10/16 00:04:37;;;;;;;6.03;1.60;;;;;;;16.51;100.00;98511.69;5022557;28;20041;-93
2023/10/16 00:07:07;;;;;;;7.43;2.15;;;;;;;16.26;100.00;98475.44;5028220;28;20157;-92
2023/10/16 00:09:34;;;;;;;4.60;1.60;;;;;;;16.41;100.00;98468.38;5026544;28;20045;-92
2023/10/16 00:12:02;;;;;;;4.93;1.25;;;;;;;16.32;100.00;98476.94;5027357;28;20042;-92
2023/10/16 00:14:30;;;;;;;8.57;1.90;;;;;;;16.09;100.00;98473.72;5022403;28;20033;-93
2023/10/16 00:16:58;;;;;;;5.45;1.50;;;;;;;16.21;100.00;98509.72;5033295;28;20140;-95
2023/10/16 00:19:24;;;;;;;6.25;1.77;;;;;;;16.40;100.00;98529.25;5023533;28;20046;-93
2023/10/16 00:21:52;;;;;;;8.52;1.90;;;;;;;16.02;100.00;98445.47;5033249;28;20044;-92
2023/10/16 00:24:18;;;;;;;8.45;1.63;;;;;;;16.03;100.00;98474.03;5022956;28;20052;-93
2023/10/16 00:26:49;;;;;;;5.93;1.35;;;;;;;16.06;100.00;98479.22;5031581;28;20100;-93
2023/10/16 00:32:18;;;;;;;5.60;1.67;;;;;;;16.71;100.00;98569.63;5179944;27;20394;-94
2023/10/16 00:34:44;;;;;;;5.78;1.50;;;;;;;16.59;100.00;98537.16;5146193;27;20058;-95
2023/10/16 00:37:10;;;;;;;7.07;2.03;;;;;;;16.31;100.00;98523.50;5154219;27;20053;-95
2023/10/16 00:39:37;;;;;;;4.70;1.70;;;;;;;16.41;100.00;98519.38;5145978;27;20042;-96
2023/10/16 00:42:08;;;;;;;7.85;2.25;;;;;;;16.46;100.00;98525.38;5150826;27;20069;-95
2023/10/16 00:44:34;;;;;;;8.45;2.15;;;;;;;16.43;100.00;98504.91;5148939;27;20372;-94
2023/10/16 00:47:04;;;;;;;6.97;1.63;;;;;;;16.79;100.00;98548.59;5158809;27;20114;-94
2023/10/16 00:49:34;;;;;;;6.38;1.60;;;;;;;16.65;100.00;98514.44;5155697;27;20035;-96
2023/10/16 00:52:03;;;;;;;3.50;1.00;;;;;;;17.08;100.00;98568.47;5156025;27;20039;-95
2023/10/16 00:54:33;;;;;;;7.30;1.80;;;;;;;16.51;100.00;98492.91;5156510;27;20103;-95
2023/10/16 00:57:00;;;;;;;8.98;1.45;;;;;;;16.79;100.00;98568.25;5146170;27;20100;-94
2023/10/16 00:59:26;;;;;;;4.63;1.30;;;;;;;16.54;100.00;98528.47;5156864;27;20066;-95
2023/10/16 01:05:13;;;;;;;5.53;1.20;;;;;;;16.56;100.00;98550.72;5104072;27;20378;-96
2023/10/16 01:07:40;;;;;;;6.68;1.20;;;;;;;16.36;100.00;98525.00;5095650;28;20075;-94
2023/10/16 01:10:10;;;;;;;1.80;0.73;;;;;;;16.28;100.00;98511.13;5099885;28;20059;-94
2023/10/16 01:12:37;;;;;;;5.03;1.58;;;;;;;16.25;100.00;98510.44;5102176;28;20103;-95
2023/10/16 01:15:06;;;;;;;3.30;1.10;;;;;;;16.48;100.00;98550.31;5100593;28;20485;-92
2023/10/16 01:17:34;;;;;;;2.88;0.82;;;;;;;16.53;100.00;98555.41;5101882;28;20139;-93
2023/10/16 01:20:03;;;;;;;2.67;0.90;;;;;;;16.26;100.00;98518.38;5103774;28;20098;-93
2023/10/16 01:22:34;;;;;;;4.50;0.93;;;;;;;16.17;100.00;98513.50;5101736;28;20049;-94
2023/10/16 01:25:07;;;;;;;3.40;0.77;;;;;;;16.35;100.00;98551.91;5101742;28;20044;-95
2023/10/16 01:27:38;;;;;;;3.75;0.63;;;;;;;16.44;100.00;98559.47;5101534;28;20040;-95
2023/10/16 01:30:06;;;;;;;2.45;0.40;;;;;;;16.49;100.00;98573.50;5101604;28;20104;-94
2023/10/16 01:32:32;;;;;;;0.98;0.40;;;;;;;16.41;100.00;98556.94;5101059;28;20519;-94
2023/10/16 01:35:00;;;;;;;1.70;0.82;;;;;;;16.19;100.00;98523.22;5100330;28;20044;-94
2023/10/16 01:37:26;;;;;;;2.42;0.95;;;;;;;16.49;100.00;98581.56;5100878;28;20055;-94
2023/10/16 01:39:56;;;;;;;2.05;0.50;;;;;;;16.17;100.00;98514.38;5100886;28;20044;-94
2023/10/16 01:42:24;;;;;;;2.90;0.30;;;;;;;16.62;100.00;98549.53;5103571;28;20078;-95
2023/10/16 01:44:53;;;;;;;1.63;0.60;;;;;;;16.59;100.00;98558.63;5102574;28;20078;-95
2023/10/16 01:47:19;;;;;;;2.10;0.50;;;;;;;16.39;100.00;98527.53;5103326;28;20104;-95
2023/10/16 01:49:48;;;;;;;3.33;0.50;;;;;;;16.19;100.00;98525.03;5101782;28;20036;-95
2023/10/16 01:52:15;;;;;;;1.05;0.35;;;;;;;16.43;100.00;98530.88;5102548;28;20127;-93
2023/10/16 01:54:44;;;;;;;1.27;0.30;;;;;;;16.57;100.00;98551.63;5099365;28;20043;-92
2023/10/16 01:57:10;;;;;;;1.10;0.82;;;;;;;16.60;100.00;98581.81;5093666;28;20044;-96
2023/10/16 01:59:43;;;;;;;1.08;0.40;;;;;;;16.44;100.00;98543.38;5100809;28;20048;-94
2023/10/16 02:02:09;;;;;;;3.10;0.40;;;;;;;16.52;100.00;98549.16;5100954;28;20664;-93
2023/10/16 02:04:37;;;;;;;1.38;0.35;;;;;;;16.60;100.00;98552.28;5100657;28;20441;-94
2023/10/16 02:07:04;;;;;;;1.45;0.40;;;;;;;16.49;100.00;98561.91;5102142;28;20040;-93
2023/10/16 02:09:31;;;;;;;0.60;0.25;;;;;;;16.72;100.00;98606.25;5100943;28;20040;-94
2023/10/16 02:11:59;;;;;;;1.05;0.30;;;;;;;16.81;100.00;98597.75;5100997;28;20052;-93
2023/10/16 02:14:25;;;;;;;0.60;0.30;;;;;;;16.96;100.00;98614.84;5096816;28;20041;-95
2023/10/16 02:16:53;;;;;;;0.60;0.22;;;;;;;16.75;100.00;98587.31;5084200;28;20040;-94
2023/10/16 02:19:19;;;;;;;1.35;0.60;;;;;;;16.53;100.00;98584.94;5084397;28;20075;-93
2023/10/16 02:21:45;;;;;;;1.70;0.40;;;;;;;16.68;100.00;98610.94;5086138;28;20119;-93
2023/10/16 02:24:11;;;;;;;1.92;0.55;;;;;;;16.45;100.00;98545.09;5085738;28;20043;-96
2023/10/16 02:26:55;;;;;;;2.30;0.50;;;;;;;16.79;100.00;98623.78;5087134;28;20382;-95
2023/10/16 02:29:22;;;;;;;1.27;0.40;;;;;;;16.64;100.00;98614.75;5082824;28;20045;-95
2023/10/16 02:31:50;;;;;;;1.80;0.82;;;;;;;16.33;100.00;98560.06;5086631;28;20047;-94
2023/10/16 02:34:22;;;;;;;2.40;0.40;;;;;;;16.64;100.00;98604.00;5085669;28;20516;-93
2023/10/16 02:36:51;;;;;;;2.13;0.43;;;;;;;16.20;100.00;98556.28;5084443;28;20497;-95
2023/10/16 02:39:35;;;;;;;0.70;0.52;;;;;;;16.37;100.00;98569.66;5082549;28;20382;-95
2023/10/16 02:42:05;;;;;;;1.92;0.57;;;;;;;16.16;100.00;98560.94;5084256;28;20040;-96
2023/10/16 02:44:33;;;;;;;1.35;0.45;;;;;;;16.15;100.00;98552.97;5083562;28;20046;-94
2023/10/16 02:46:59;;;;;;;2.67;0.60;;;;;;;16.18;100.00;98563.56;5083635;28;20028;-93
2023/10/16 02:49:26;;;;;;;1.92;0.40;;;;;;;16.46;100.00;98602.31;5082530;28;20429;-94
2023/10/16 02:51:52;;;;;;;2.10;0.50;;;;;;;16.13;100.00;98553.03;5084040;28;20459;-95
2023/10/16 02:54:18;;;;;;;0.98;0.45;;;;;;;15.93;100.00;98546.06;5081512;28;20048;-95
2023/10/16 02:56:45;;;;;;;2.20;0.35;;;;;;;16.54;100.00;98624.25;5085263;28;20040;-94
2023/10/16 02:59:11;;;;;;;2.60;0.60;;;;;;;16.17;100.00;98556.44;5084960;28;20139;-94
2023/10/16 03:01:38;;;;;;;1.13;0.45;;;;;;;16.17;100.00;98553.75;5082847;28;20047;-94
2023/10/16 03:04:06;;;;;;;1.17;0.50;;;;;;;16.67;100.00;98611.88;5087905;28;20033;-94
2023/10/16 03:06:39;;;;;;;0.63;0.32;;;;;;;16.19;100.00;98552.72;5084606;28;20132;-96
2023/10/16 03:12:09;;;;;;;1.35;0.52;;;;;;;16.38;100.00;98592.88;5135789;27;20925;-93
2023/10/16 03:14:45;;;;;;;1.08;0.47;;;;;;;16.12;100.00;98567.41;5100850;28;20142;-93
2023/10/16 03:17:18;;;;;;;1.15;0.45;;;;;;;16.38;100.00;98619.69;5099480;28;20060;-93
2023/10/16 03:19:48;;;;;;;2.90;0.50;;;;;;;16.23;100.00;98599.03;5101033;28;20093;-95
2023/10/16 03:22:15;;;;;;;1.30;0.52;;;;;;;15.96;100.00;98579.88;5100381;28;20027;-94
2023/10/16 03:24:43;;;;;;;3.20;0.70;;;;;;;16.06;100.00;98575.78;5102637;28;20132;-95
2023/10/16 03:27:28;;;;;;;1.92;0.52;;;;;;;15.98;100.00;98560.13;5101299;28;20508;-95
2023/10/16 03:29:55;;;;;;;1.33;1.05;;;;;;;16.01;100.00;98572.50;5102304;28;20481;-95
2023/10/16 03:32:23;;;;;;;3.47;0.55;;;;;;;16.04;100.00;98558.91;5102326;28;20098;-94
2023/10/16 03:34:49;;;;;;;2.17;0.40;;;;;;;16.47;100.00;98634.44;5102220;28;20044;-96
2023/10/16 03:37:15;;;;;;;2.75;0.43;;;;;;;16.10;100.00;98625.66;5099693;28;20056;-92
2023/10/16 03:39:41;;;;;;;3.17;0.65;;;;;;;16.23;100.00;98629.41;5100574;28;20112;-94
2023/10/16 03:42:09;;;;;;;2.53;0.55;;;;;;;16.05;100.00;98579.44;5101256;28;20117;-95
2023/10/16 03:44:39;;;;;;;0.85;0.50;;;;;;;16.26;100.00;98616.78;5102291;28;20074;-95
2023/10/16 03:47:07;;;;;;;4.28;0.73;;;;;;;15.96;100.00;98591.50;5099892;28;20032;-94
2023/10/16 03:49:33;;;;;;;1.55;0.65;;;;;;;15.94;100.00;98582.66;5100806;28;20123;-95
2023/10/16 03:52:00;;;;;;;1.52;0.73;;;;;;;15.82;100.00;98565.38;5099877;28;20032;-92
2023/10/16 03:54:35;;;;;;;1.48;0.40;;;;;;;16.06;100.00;98621.38;5099576;28;20131;-94
2023/10/16 03:57:01;;;;;;;1.52;0.43;;;;;;;16.02;100.00;98585.78;5101319;28;20048;-94
2023/10/16 03:59:29;;;;;;;2.20;0.40;;;;;;;16.33;100.00;98612.81;5104418;28;20044;-94
2023/10/16 04:01:56;;;;;;;4.72;0.40;;;;;;;16.32;100.00;98595.88;5099960;28;20108;-93
2023/10/16 04:04:26;;;;;;;1.10;0.55;;;;;;;15.80;100.00;98585.19;5098378;28;20070;-94
2023/10/16 04:06:56;;;;;;;1.00;0.52;;;;;;;16.04;100.00;98588.41;5101119;28;20036;-94
2023/10/16 04:09:22;;;;;;;3.90;0.43;;;;;;;16.00;100.00;98616.34;5098099;28;20109;-93
2023/10/16 04:11:54;;;;;;;2.83;0.73;;;;;;;16.02;100.00;98583.13;5098968;28;20049;-96
2023/10/16 04:14:36;;;;;;;1.50;0.63;;;;;;;16.02;100.00;98587.63;5102118;28;20044;-93
2023/10/16 04:17:04;;;;;;;2.75;0.55;;;;;;;15.91;100.00;98576.59;5100016;28;20044;-94
2023/10/16 04:19:47;;;;;;;2.92;0.70;;;;;;;16.10;100.00;98641.75;5096867;28;20052;-92
2023/10/16 04:22:16;;;;;;;1.88;0.60;;;;;;;16.02;100.00;98582.25;5093108;28;20041;-94
2023/10/16 04:24:46;;;;;;;6.18;0.73;;;;;;;16.00;100.00;98560.00;5085115;28;20051;-93
2023/10/16 04:38:31;;;;;;;3.53;0.40;;;;;;;16.05;100.00;98586.59;5149966;27;1640163;-94
2023/10/16 04:47:00;;;;;;;2.75;0.88;;;;;;;15.87;100.00;98583.06;5124239;27;20738;-95
2023/10/16 04:49:28;;;;;;;3.13;0.80;;;;;;;16.00;100.00;98598.44;5123071;28;20040;-95
2023/10/16 04:52:01;;;;;;;2.85;0.82;;;;;;;15.92;100.00;98605.16;5117648;28;20070;-95
2023/10/16 04:54:45;;;;;;;2.05;0.30;;;;;;;16.05;100.00;98627.72;5119121;28;20035;-94
2023/10/16 05:00:27;;;;;;;2.42;0.43;;;;;;;15.94;100.00;98633.63;5101519;27;20378;-94
2023/10/16 05:02:48;;;;;;;5.07;0.55;;;;;;;16.18;100.00;98593.94;5085135;28;20052;-95
2023/10/16 05:14:19;;;;;;;1.65;0.50;;;;;;;16.36;100.00;98629.66;5161474;27;20371;-94
2023/10/16 05:19:53;;;;;;;2.35;0.50;;;;;;;16.07;100.00;98624.94;5076838;27;20380;-91
2023/10/16 06:16:55;;;;;;;0.85;0.50;;;;;;;16.35;100.00;98633.28;5131558;27;20378;-94
2023/10/16 06:19:24;;;;;;;1.00;0.30;;;;;;;16.45;100.00;98683.78;5096776;28;20043;-96
2023/10/16 06:21:51;;;;;;;2.83;0.82;;;;;;;16.66;100.00;98677.28;5097778;28;20403;-96
2023/10/16 06:24:28;;;;;;;1.35;0.73;;;;;;;15.92;100.00;98606.03;5094482;28;20048;-94
2023/10/16 06:26:54;;;;;;;2.15;0.40;;;;;;;15.95;100.00;98621.06;5095482;28;20489;-93
2023/10/16 06:29:25;;;;;;;0.85;0.30;;;;;;;16.14;100.00;98640.63;5098592;28;20481;-91
2023/10/16 06:31:53;;;;;;;2.13;0.57;;;;;;;16.55;100.00;98674.31;5096496;28;20043;-94
2023/10/16 06:34:21;;;;;;;2.75;0.40;;;;;;;16.50;100.00;98679.91;5097431;28;20092;-95
2023/10/16 06:36:47;;;;;;;4.65;0.55;;;;;;;16.71;100.00;98683.28;5097017;28;20062;-93
2023/10/16 06:42:20;;;;;;;2.50;0.40;;;;;;;16.28;100.00;98636.38;5181556;27;20379;-93
2023/10/16 06:44:50;;;;;;;0.55;0.32;;;;;;;16.47;100.00;98647.00;5175696;27;20448;-92
2023/10/16 06:47:17;;;;;;;3.90;0.50;;;;;;;16.72;99.22;98635.81;5180919;27;20018;-95
2023/10/16 06:49:43;;;;;;;2.42;0.40;;;;;;;16.86;96.43;98678.94;5176677;27;20059;-92
2023/10/16 06:52:12;;;;;;;1.23;0.40;;;;;;;16.81;95.98;98651.47;5169129;27;20045;-94
2023/10/16 06:54:39;;;;;;;1.95;0.30;;;;;;;16.85;95.62;98685.25;5167276;27;20042;-93
2023/10/16 06:57:10;;;;;;;2.65;0.45;;;;;;;16.86;92.57;98646.69;5180278;27;20030;-95
2023/10/16 06:59:38;;;;;;;1.90;0.57;;;;;;;16.95;92.92;98665.00;5176102;27;20121;-93
2023/10/16 07:02:05;;;;;;;4.00;0.80;;;;;;;17.09;92.70;98675.00;5179603;27;20035;-94
2023/10/16 07:04:31;;;;;;;1.23;0.55;;;;;;;16.83;92.93;98642.38;5173956;27;20397;-95
2023/10/16 07:06:58;;;;;;;1.83;0.52;;;;;;;17.02;91.64;98661.03;5177386;27;20046;-95
2023/10/16 07:09:35;;;;;;;1.48;0.52;;;;;;;17.29;89.32;98689.16;5179866;27;20125;-96
2023/10/16 07:12:03;;;;;;;3.45;0.50;;;;;;;17.31;89.97;98655.00;5163160;27;20042;-94
2023/10/16 07:14:29;;;;;;;4.32;0.50;;;;;;;17.28;87.97;98673.97;5172629;27;20038;-93
2023/10/16 07:16:58;;;;;;;3.13;0.63;;;;;;;16.97;89.91;98678.34;5172799;27;20462;-90
2023/10/16 07:19:25;;;;;;;2.35;0.60;;;;;;;17.36;88.52;98694.06;5171355;27;20471;-91
2023/10/16 07:21:51;;;;;;;4.30;0.52;;;;;;;17.39;87.18;98707.38;5169937;27;20035;-92
2023/10/16 07:24:17;;;;;;;2.22;0.43;;;;;;;17.37;85.95;98687.75;5171609;27;20038;-92
2023/10/16 07:26:44;;;;;;;1.67;0.68;;;;;;;17.78;86.28;98705.16;5170353;27;20425;-92
2023/10/16 07:29:11;;;;;;;2.97;0.57;;;;;;;17.22;86.21;98691.31;5171243;27;20095;-93
2023/10/16 07:31:37;;;;;;;2.78;0.52;;;;;;;17.34;86.10;98687.06;5167588;27;20060;-92
2023/10/16 07:34:05;;;;;;;4.53;0.65;;;;;;;17.57;83.47;98712.66;5171345;27;20055;-93
2023/10/16 07:36:32;;;;;;;2.67;0.50;;;;;;;17.63;81.53;98715.88;5170377;27;20048;-93
2023/10/16 07:39:02;;;;;;;3.80;0.63;;;;;;;17.48;82.05;98718.53;5168134;27;20047;-92
2023/10/16 07:41:28;;;;;;;4.47;0.50;;;;;;;16.89;82.33;98668.00;5171842;27;20043;-91
2023/10/16 07:43:57;;;;;;;2.60;0.45;;;;;;;17.75;80.61;98700.84;5171661;27;20053;-93
2023/10/16 07:46:30;;;;;;;1.67;0.50;;;;;;;18.16;77.75;98694.03;5169581;27;20079;-94
2023/10/16 07:49:03;;;;;;;2.25;0.45;;;;;;;17.94;79.58;98710.59;5169820;27;20038;-93
2023/10/16 07:51:30;;;;;;;0.95;0.43;;;;;;;17.80;77.88;98669.19;5167241;27;20406;-93
2023/10/16 07:53:57;;;;;;;4.00;1.00;;;;;;;18.04;78.98;98725.22;5159141;27;20451;-94
2023/10/16 07:59:09;;;;;;;2.80;0.40;;;;;;;17.66;79.21;98701.38;5108671;27;20380;-92
2023/10/16 08:01:37;;;;;;;2.17;0.40;;;;;;;17.73;77.74;98696.50;5073744;28;20044;-92
2023/10/16 08:04:05;;;;;;;2.85;0.40;;;;;;;17.88;78.18;98706.41;5073930;28;20509;-93
2023/10/16 08:06:31;;;;;;;1.88;0.40;;;;;;;17.94;78.21;98716.81;5072356;28;20048;-92
2023/10/16 08:11:57;;;;;;;0.40;0.40;;;;;;;17.92;67.21;98728.63;5154605;27;20397;-93
2023/10/16 08:14:23;;;;;;;1.70;0.75;;;;;;;17.93;69.26;98724.97;5135564;27;20039;-92
2023/10/16 08:16:58;;;;;;;1.40;0.40;;;;;;;18.06;67.19;98729.56;5137523;27;20031;-94
2023/10/16 08:19:24;;;;;;;3.13;0.70;;;;;;;18.06;68.48;98726.00;5136055;27;20038;-92
2023/10/16 08:21:50;;;;;;;3.45;0.80;;;;;;;17.92;67.06;98712.50;5132046;27;20487;-93
2023/10/16 08:24:16;;;;;;;4.18;0.57;;;;;;;17.85;67.67;98725.44;5135964;27;20425;-93
2023/10/16 08:26:43;;;;;;;1.83;0.40;;;;;;;17.86;67.66;98717.25;5136795;27;20043;-93
2023/10/16 08:29:11;;;;;;;1.90;0.50;;;;;;;18.15;68.02;98693.19;5135462;27;20031;-95
2023/10/16 08:31:41;;;;;;;1.45;0.32;;;;;;;18.56;64.73;98722.09;5133777;27;20038;-93
2023/10/16 08:34:08;;;;;;;4.43;0.63;;;;;;;18.16;66.78;98724.50;5134559;27;20047;-93
2023/10/16 08:36:34;;;;;;;3.22;0.50;;;;;;;18.39;66.19;98730.34;5131829;27;20513;-93
2023/10/16 08:39:08;;;;;;;2.25;0.40;;;;;;;18.84;65.75;98728.53;5136033;27;20034;-93
2023/10/16 08:41:42;;;;;;;2.30;0.45;;;;;;;18.55;66.01;98731.16;5150120;27;20122;-94
2023/10/16 08:44:14;;;;;;;3.65;0.60;;;;;;;18.19;66.26;98675.84;5141040;27;20062;-93
2023/10/16 08:46:45;;;;;;;5.47;0.50;;;;;;;18.95;64.58;98720.66;5140321;27;20041;-94
2023/10/16 08:49:11;;;;;;;1.17;0.40;;;;;;;18.79;63.45;98709.13;5134478;27;20063;-93
2023/10/16 08:51:38;;;;;;;4.28;0.80;;;;;;;18.71;63.57;98684.44;5139936;27;20038;-93
2023/10/16 08:54:05;;;;;;;2.75;0.70;;;;;;;19.21;62.95;98716.31;5142917;27;20039;-93
2023/10/16 08:56:31;;;;;;;1.23;0.80;;;;;;;18.97;63.32;98699.00;5140578;27;20422;-94
2023/10/16 08:59:01;;;;;;;3.35;0.63;;;;;;;19.21;63.55;98754.06;5141189;27;20040;-94
2023/10/16 09:01:32;;;;;;;6.95;0.88;;;;;;;18.87;62.21;98687.97;5136948;27;20035;-92
2023/10/16 09:04:05;;;;;;;2.80;0.50;;;;;;;19.26;61.93;98726.84;5143278;27;20039;-93
2023/10/16 09:06:36;;;;;;;4.43;0.70;;;;;;;19.09;61.78;98674.84;5133583;27;20051;-94
2023/10/16 09:09:12;;;;;;;2.90;0.80;;;;;;;19.32;60.11;98707.56;5143872;27;20060;-94
2023/10/16 09:11:39;;;;;;;;;;;;;;;19.71;59.87;98749.16;5142187;27;20073;-94
2023/10/16 09:14:07;;;;;;;3.47;0.85;;;;;;;19.45;60.81;98729.22;5139673;27;19919;-95
2023/10/16 09:16:34;;;;;;;2.30;1.67;;;;;;;19.01;62.00;98714.03;5135242;27;20400;-94
2023/10/16 09:19:06;;;;;;;3.30;0.57;;;;;;;19.18;60.57;98694.09;5133421;27;20036;-96
2023/10/16 09:21:38;;;;;;;3.50;0.75;;;;;;;19.53;60.82;98715.25;5132586;27;20031;-95
2023/10/16 09:24:06;;;;;;;1.20;0.60;;;;;;;19.86;59.39;98744.59;5123330;27;20023;-93
2023/10/16 09:26:33;;;;;;;3.00;0.90;;;;;;;19.43;60.96;98744.63;5121998;27;20069;-94
2023/10/16 09:32:02;;;;;;;1.40;0.50;;;;;;;19.32;59.67;98736.34;5092708;27;20371;-93
2023/10/16 09:34:28;;;;;;;1.17;0.50;;;;;;;19.52;59.36;98740.47;5092574;28;20074;-93
2023/10/16 09:40:01;;;;;;;5.20;0.82;;;;;;;19.31;60.03;98746.28;5150917;27;20373;-94
2023/10/16 09:42:28;;;;;;;1.98;0.43;;;;;;;19.40;60.75;98747.53;5110564;28;20048;-94
2023/10/16 09:44:59;;;;;;;4.57;0.80;;;;;;;19.33;59.38;98728.19;5114728;28;20024;-94
2023/10/16 09:47:26;;;;;;;1.50;0.30;;;;;;;19.56;58.40;98742.00;5112249;28;20043;-94
2023/10/16 09:49:53;;;;;;;2.22;0.60;;;;;;;19.50;58.69;98721.72;5117050;28;20040;-95
2023/10/16 09:52:21;;;;;;;3.78;0.60;;;;;;;19.50;58.91;98725.28;5113255;28;20043;-96
2023/10/16 09:54:48;;;;;;;3.25;0.60;;;;;;;19.83;58.17;98742.09;5118689;28;20043;-93
2023/10/16 09:57:19;;;;;;;3.20;0.50;;;;;;;18.95;59.71;98688.31;5124009;28;20053;-92
2023/10/16 09:59:45;;;;;;;2.38;0.52;;;;;;;19.32;60.24;98739.91;5121283;28;20480;-93
2023/10/16 10:02:18;;;;;;;3.88;0.52;;;;;;;19.16;60.36;98726.53;5117789;28;20039;-93
2023/10/16 10:04:53;;;;;;;1.92;0.30;;;;;;;19.03;59.33;98712.97;5115777;28;20070;-93
2023/10/16 10:07:22;;;;;;;6.43;0.65;;;;;;;19.33;60.04;98747.06;5116472;28;20043;-95
2023/10/16 10:09:53;;;;;;;0.43;0.30;;;;;;;19.21;60.57;98724.41;5127140;28;20107;-92
2023/10/16 10:12:29;;;;;;;11.27;1.27;;;;;;;19.40;60.37;98734.03;5118665;28;20065;-93
2023/10/16 10:15:15;;;;;;;5.40;0.77;;;;;;;19.01;60.70;98727.50;5115592;28;20039;-93
2023/10/16 10:17:42;;;;;;;3.85;0.43;;;;;;;19.28;59.74;98727.63;5124027;28;20065;-93
2023/10/16 10:20:09;;;;;;;3.53;0.43;;;;;;;19.01;58.68;98685.25;5123951;28;20044;-92
2023/10/16 10:22:37;;;;;;;2.90;0.55;;;;;;;19.62;58.26;98693.06;5120187;28;20113;-93
2023/10/16 10:25:16;;;;;;;1.80;0.50;;;;;;;19.67;58.15;98723.31;5121470;28;20522;-94
2023/10/16 10:27:44;;;;;;;3.33;0.50;;;;;;;19.96;56.47;98699.84;5126612;28;20043;-94
2023/10/16 10:30:17;;;;;;;4.55;0.65;;;;;;;19.46;58.63;98668.94;5123127;28;20035;-93
2023/10/16 10:32:51;;;;;;;2.15;0.40;;;;;;;19.93;55.85;98661.38;5121311;28;20057;-94
2023/10/16 10:35:22;;;;;;;1.88;0.50;;;;;;;20.28;55.92;98721.13;5118387;28;20065;-93
2023/10/16 10:37:48;;;;;;;3.05;0.60;;;;;;;20.27;55.97;98651.84;5123902;28;20073;-93
2023/10/16 10:40:21;;;;;;;1.92;1.00;;;;;;;20.34;55.77;98717.97;5125232;27;20389;-93
2023/10/16 10:42:53;;;;;;;3.13;0.68;;;;;;;19.07;59.56;98659.75;5120543;28;20047;-93
2023/10/16 10:45:33;;;;;;;4.20;0.40;;;;;;;19.67;58.90;98680.16;5118433;28;20035;-94
2023/10/16 10:48:06;;;;;;;1.67;0.43;;;;;;;19.81;57.49;98698.16;5125075;28;20040;-92
2023/10/16 10:50:34;;;;;;;1.50;0.50;;;;;;;19.95;57.44;98697.22;5111954;28;20040;-93
2023/10/16 10:53:06;;;;;;;1.60;0.40;;;;;;;19.63;57.35;98673.22;5104705;28;20047;-93
2023/10/16 10:55:32;;;;;;;4.47;0.63;;;;;;;19.49;58.51;98701.09;5106389;28;20032;-95
2023/10/16 10:58:01;;;;;;;2.95;0.90;;;;;;;19.76;58.18;98667.94;5109946;28;20054;-93
2023/10/16 11:03:22;;;;;;;4.40;1.20;;;;;;;19.98;55.93;98651.16;5147746;27;20375;-94
2023/10/16 11:05:50;;;;;;;3.05;1.23;;;;;;;19.97;56.56;98638.63;5125595;28;20077;-94
2023/10/16 11:11:05;;;;;;;1.90;0.60;;;;;;;19.82;56.77;98662.09;5065656;27;20416;-94
2023/10/16 11:13:31;;;;;;;;;;;;;;;20.29;56.49;98710.19;5065391;28;20068;-94
2023/10/16 11:15:58;;;;;;;1.17;0.47;;;;;;;19.90;55.88;98655.22;5060408;28;19924;-93
2023/10/16 11:18:26;;;;;;;4.07;0.70;;;;;;;19.64;56.85;98643.44;5061450;28;20037;-94
2023/10/16 11:21:04;;;;;;;3.50;0.70;;;;;;;19.28;57.31;98658.38;5070190;28;20049;-93
2023/10/16 11:23:31;;;;;;;2.97;0.60;;;;;;;19.85;55.50;98635.78;5065072;28;20044;-94
2023/10/16 11:25:58;;;;;;;1.55;0.40;;;;;;;20.40;55.55;98678.88;5061783;28;20053;-95
2023/10/16 11:28:31;;;;;;;4.22;0.55;;;;;;;19.78;55.57;98650.66;5061364;28;20044;-93
2023/10/16 11:30:59;;;;;;;3.50;1.45;;;;;;;20.38;54.37;98648.41;5066642;28;20037;-95
2023/10/16 11:36:34;;;;;;;4.03;0.60;;;;;;;20.33;53.36;98624.44;5096471;27;20369;-93
2023/10/16 11:39:02;;;;;;;1.77;0.60;;;;;;;20.23;53.36;98607.13;5082002;27;20102;-96
2023/10/16 11:41:30;;;;;;;4.22;0.98;;;;;;;19.68;54.24;98598.25;5058267;27;20042;-94
2023/10/16 11:44:01;;;;;;;3.58;0.52;;;;;;;20.25;54.36;98624.09;5059870;27;20022;-94
2023/10/16 11:55:08;;;;;;;5.00;0.80;;;;;;;20.13;53.66;98590.72;5149205;27;20955;-94
2023/10/16 11:57:34;;;;;;;2.53;0.45;;;;;;;;;;5111228;28;20044;-95
2023/10/16 12:00:15;;;;;;;3.50;0.60;;;;;;;19.54;56.01;98582.09;5115287;28;20134;-94
2023/10/16 12:02:41;;;;;;;3.30;0.75;;;;;;;19.66;55.09;98584.84;5109903;28;20401;-94
2023/10/16 12:05:09;;;;;;;2.40;1.10;;;;;;;20.00;55.16;98597.94;5116012;28;20043;-94
2023/10/16 12:07:43;;;;;;;2.65;0.60;;;;;;;19.71;55.15;98554.91;5109909;28;20055;-94
2023/10/16 12:10:15;;;;;;;2.30;0.50;;;;;;;20.14;54.55;98607.78;5108170;28;20045;-93
2023/10/16 12:12:41;;;;;;;5.20;1.10;;;;;;;20.07;53.87;98580.34;5108961;28;20074;-94
2023/10/16 12:15:10;;;;;;;3.92;0.52;;;;;;;19.98;54.58;98587.25;5134877;28;20036;-95
2023/10/16 12:17:36;;;;;;;1.60;0.55;;;;;;;19.98;54.00;98594.47;5108419;28;20026;-94
2023/10/16 12:20:12;;;;;;;3.17;0.75;;;;;;;19.65;54.58;98558.00;5105995;28;20053;-95
2023/10/16 12:22:39;;;;;;;3.88;0.55;;;;;;;19.59;54.26;98548.47;5112888;28;20046;-94
2023/10/16 12:25:09;;;;;;;7.18;0.50;;;;;;;19.23;55.87;98551.78;5111966;28;20579;-93
2023/10/16 12:27:37;;;;;;;2.88;0.50;;;;;;;19.90;54.55;98586.91;5108139;28;20040;-95
2023/10/16 12:30:04;;;;;;;5.65;0.80;;;;;;;19.41;55.53;98572.16;5114802;28;20393;-93
2023/10/16 12:32:30;;;;;;;3.10;0.50;;;;;;;19.90;53.32;98579.66;5117069;28;20043;-95
2023/10/16 12:34:57;;;;;;;2.75;0.50;;;;;;;19.96;54.69;98599.13;5107843;28;20071;-94
2023/10/16 12:37:25;;;;;;;2.65;0.50;;;;;;;20.03;54.47;98612.06;5120685;28;20062;-94
2023/10/16 12:39:52;;;;;;;2.40;0.57;;;;;;;19.78;54.21;98583.22;5112410;28;20040;-94
2023/10/16 12:42:18;;;;;;;1.55;0.60;;;;;;;19.62;54.59;98550.94;5112380;28;20044;-93
2023/10/16 12:44:46;;;;;;;2.47;0.70;;;;;;;19.67;54.88;98585.75;5109857;28;20078;-94
2023/10/16 12:47:12;;;;;;;1.98;0.50;;;;;;;19.87;54.10;98555.59;5114434;28;20130;-94
2023/10/16 12:49:38;;;;;;;3.15;0.50;;;;;;;20.06;53.57;98540.81;5111051;28;20036;-94
2023/10/16 12:52:05;;;;;;;2.88;0.50;;;;;;;19.79;54.19;98549.84;5105635;28;20039;-94
2023/10/16 12:54:32;;;;;;;1.73;0.40;;;;;;;19.72;54.92;98543.16;5109017;28;20040;-94
2023/10/16 12:56:59;;;;;;;2.65;0.70;;;;;;;20.01;53.46;98592.41;5106994;28;20048;-94
2023/10/16 12:59:26;;;;;;;2.05;0.80;;;;;;;19.97;53.58;98573.84;5113999;28;20086;-94
2023/10/16 13:01:54;;;;;;;2.72;0.63;;;;;;;19.99;52.58;98556.56;5115962;28;20203;-94
2023/10/16 13:04:20;;;;;;;4.22;0.82;;;;;;;19.86;54.28;98621.34;5108245;28;20049;-92
2023/10/16 13:06:46;;;;;;;6.80;0.77;;;;;;;19.40;54.35;98570.41;5090100;28;20036;-93
2023/10/16 13:09:22;;;;;;;1.90;0.40;;;;;;;19.48;54.37;98551.03;5092608;28;20113;-94
2023/10/16 13:11:48;;;;;;;3.30;0.80;;;;;;;20.01;53.82;98627.50;5093545;28;20037;-94
2023/10/16 13:14:14;;;;;;;1.40;0.45;;;;;;;20.09;53.45;98600.84;5093862;28;20036;-93
2023/10/16 13:16:41;;;;;;;1.38;0.50;;;;;;;20.18;52.81;98599.34;5093031;28;20131;-94
2023/10/16 13:19:09;;;;;;;3.53;0.70;;;;;;;20.06;52.92;98614.59;5101006;28;20036;-93
2023/10/16 13:21:38;;;;;;;3.13;0.70;;;;;;;19.68;53.10;98549.69;5099869;28;20517;-95
2023/10/16 13:24:09;;;;;;;2.08;0.60;;;;;;;19.73;53.67;98557.50;5091822;28;20036;-94
2023/10/16 13:26:36;;;;;;;3.15;0.82;;;;;;;19.66;53.68;98555.19;5092121;28;20040;-95
2023/10/16 13:29:07;;;;;;;2.30;0.60;;;;;;;19.40;54.92;98551.53;5094081;28;20113;-94
2023/10/16 13:31:34;;;;;;;3.55;0.63;;;;;;;19.88;53.52;98586.13;5099237;28;20044;-93
2023/10/16 13:34:02;;;;;;;2.83;0.52;;;;;;;19.87;53.16;98581.72;5092642;28;20123;-93
2023/10/16 13:36:35;;;;;;;2.22;0.63;;;;;;;20.20;52.73;98613.63;5088640;28;20029;-92
2023/10/16 13:39:02;;;;;;;4.65;0.80;;;;;;;20.26;54.17;98626.69;5092449;28;20404;-94
2023/10/16 13:41:29;;;;;;;3.95;0.50;;;;;;;19.88;53.37;98602.31;5095778;28;20143;-95
2023/10/16 13:43:55;;;;;;;4.25;0.50;;;;;;;19.89;53.20;98572.53;5102937;28;20044;-93
2023/10/16 13:46:21;;;;;;;5.30;0.70;;;;;;;19.81;53.07;98542.50;5095994;28;20032;-93
2023/10/16 13:48:47;;;;;;;5.82;1.00;;;;;;;19.55;53.51;98548.78;5093220;28;20052;-94